sensor_id;sensor_type;location;lat;lon;timestamp;pressure;altitude;pressure_sealevel;temperature;humidity
21588;BME280;10956;48.878;13.316;2022-07-05T00:00:00;94381.72;;;18.72;100.00
21588;BME280;10956;48.878;13.316;2022-07-05T00:02:25;94385.44;;;18.54;100.00
21588;BME280;10956;48.878;13.316;2022-07-05T00:04:50;94383.84;;;18.53;100.00
21588;BME280;10956;48.878;13.316;2022-07-05T00:07:19;94370.97;;;18.55;100.00
21588;BME280;10956;48.878;13.316;2022-07-05T00:09:46;94374.59;;;18.50;100.00
21588;BME280;10956;48.878;13.316;2022-07-05T00:12:12;94370.66;;;18.48;100.00
21588;BME280;10956;48.878;13.316;2022-07-05T00:14:38;94373.47;;;18.43;100.00
21588;BME280;10956;48.878;13.316;2022-07-05T00:17:04;94373.28;;;18.39;100.00
21588;BME280;10956;48.878;13.316;2022-07-05T00:19:30;94366.56;;;18.42;100.00
21588;BME280;10956;48.878;13.316;2022-07-05T00:21:55;94370.00;;;18.33;100.00
21588;BME280;10956;48.878;13.316;2022-07-05T00:24:21;94376.28;;;18.37;100.00
21588;BME280;10956;48.878;13.316;2022-07-05T00:26:46;94373.28;;;18.39;100.00
21588;BME280;10956;48.878;13.316;2022-07-05T00:29:12;94384.91;;;18.34;100.00
21588;BME280;10956;48.878;13.316;2022-07-05T00:31:37;94378.34;;;18.49;100.00
21588;BME280;10956;48.878;13.316;2022-07-05T00:34:02;94376.00;;;18.48;100.00
21588;BME280;10956;48.878;13.316;2022-07-05T00:36:28;94382.09;;;18.39;100.00
21588;BME280;10956;48.878;13.316;2022-07-05T00:38:53;94377.22;;;18.42;100.00
21588;BME280;10956;48.878;13.316;2022-07-05T00:41:19;94378.81;;;18.43;100.00
21588;BME280;10956;48.878;13.316;2022-07-05T00:43:59;94374.09;;;18.39;100.00
21588;BME280;10956;48.878;13.316;2022-07-05T00:46:25;94380.03;;;18.36;100.00
21588;BME280;10956;48.878;13.316;2022-07-05T00:48:50;94377.22;;;18.42;100.00
21588;BME280;10956;48.878;13.316;2022-07-05T00:51:17;94382.22;;;18.34;100.00
21588;BME280;10956;48.878;13.316;2022-07-05T00:53:43;94385.81;;;18.30;100.00
21588;BME280;10956;48.878;13.316;2022-07-05T00:56:12;94386.16;;;18.37;100.00
21588;BME280;10956;48.878;13.316;2022-07-05T00:58:39;94388.19;;;18.31;100.00
21588;BME280;10956;48.878;13.316;2022-07-05T01:01:06;94386.16;;;18.37;100.00
21588;BME280;10956;48.878;13.316;2022-07-05T01:03:32;94389.47;;;18.43;100.00
21588;BME280;10956;48.878;13.316;2022-07-05T01:05:58;94382.91;;;18.49;100.00
21588;BME280;10956;48.878;13.316;2022-07-05T01:08:26;94392.63;;;18.45;100.00
21588;BME280;10956;48.878;13.316;2022-07-05T01:10:52;94388.69;;;18.42;100.00
21588;BME280;10956;48.878;13.316;2022-07-05T01:13:19;94388.38;;;18.44;100.00
21588;BME280;10956;48.878;13.316;2022-07-05T01:15:44;94384.63;;;18.45;100.00
21588;BME280;10956;48.878;13.316;2022-07-05T01:18:10;94379.91;;;18.42;100.00
21588;BME280;10956;48.878;13.316;2022-07-05T01:20:36;94385.53;;;18.40;100.00
21588;BME280;10956;48.878;13.316;2022-07-05T01:23:02;94384.75;;;18.39;100.00
21588;BME280;10956;48.878;13.316;2022-07-05T01:25:30;94375.66;;;18.40;100.00
21588;BME280;10956;48.878;13.316;2022-07-05T01:27:57;94377.09;;;18.47;100.00
21588;BME280;10956;48.878;13.316;2022-07-05T01:30:23;94373.94;;;18.45;100.00
21588;BME280;10956;48.878;13.316;2022-07-05T01:32:49;94373.00;;;18.49;100.00
21588;BME280;10956;48.878;13.316;2022-07-05T01:35:15;94374.91;;;18.49;100.00
21588;BME280;10956;48.878;13.316;2022-07-05T01:37:49;94378.19;;;18.46;100.00
21588;BME280;10956;48.878;13.316;2022-07-05T01:40:16;94380.84;;;18.46;100.00
21588;BME280;10956;48.878;13.316;2022-07-05T01:42:42;94378.81;;;18.43;100.00
21588;BME280;10956;48.878;13.316;2022-07-05T01:45:07;94379.41;;;18.39;100.00
21588;BME280;10956;48.878;13.316;2022-07-05T01:47:38;94385.38;;;18.36;100.00
21588;BME280;10956;48.878;13.316;2022-07-05T01:50:06;94384.41;;;18.32;100.00
21588;BME280;10956;48.878;13.316;2022-07-05T01:52:33;94387.91;;;18.42;100.00
21588;BME280;10956;48.878;13.316;2022-07-05T01:55:03;94386.00;;;18.33;100.00
21588;BME280;10956;48.878;13.316;2022-07-05T01:57:28;94394.94;;;18.29;100.00
21588;BME280;10956;48.878;13.316;2022-07-05T01:59:54;94401.03;;;18.29;100.00
21588;BME280;10956;48.878;13.316;2022-07-05T02:02:19;94396.66;;;18.33;100.00
21588;BME280;10956;48.878;13.316;2022-07-05T02:04:45;94399.16;;;18.30;100.00
21588;BME280;10956;48.878;13.316;2022-07-05T02:07:10;94404.34;;;18.26;100.00
21588;BME280;10956;48.878;13.316;2022-07-05T02:09:37;94399.94;;;18.30;100.00
21588;BME280;10956;48.878;13.316;2022-07-05T02:12:03;94408.25;;;18.29;100.00
21588;BME280;10956;48.878;13.316;2022-07-05T02:14:29;94413.91;;;18.27;100.00
21588;BME280;10956;48.878;13.316;2022-07-05T02:16:55;94416.53;;;18.19;100.00
21588;BME280;10956;48.878;13.316;2022-07-05T02:19:21;94415.75;;;18.18;100.00
21588;BME280;10956;48.878;13.316;2022-07-05T02:21:46;94422.31;;;18.12;100.00
21588;BME280;10956;48.878;13.316;2022-07-05T02:24:11;94430.19;;;18.17;100.00
21588;BME280;10956;48.878;13.316;2022-07-05T02:26:37;94432.53;;;18.19;100.00
21588;BME280;10956;48.878;13.316;2022-07-05T02:29:05;94436.13;;;18.14;100.00
21588;BME280;10956;48.878;13.316;2022-07-05T02:31:31;94440.69;;;18.14;100.00
21588;BME280;10956;48.878;13.316;2022-07-05T02:33:57;94444.44;;;18.13;100.00
21588;BME280;10956;48.878;13.316;2022-07-05T02:36:23;94448.19;;;18.12;100.00
21588;BME280;10956;48.878;13.316;2022-07-05T02:38:49;94461.22;;;18.13;100.00
21588;BME280;10956;48.878;13.316;2022-07-05T02:41:14;94449.94;;;18.16;100.00
21588;BME280;10956;48.878;13.316;2022-07-05T02:43:40;94458.44;;;18.18;100.00
21588;BME280;10956;48.878;13.316;2022-07-05T02:46:07;94463.75;;;18.18;100.00
21588;BME280;10956;48.878;13.316;2022-07-05T02:48:33;94460.97;;;18.23;100.00
21588;BME280;10956;48.878;13.316;2022-07-05T02:50:59;94457.50;;;18.23;100.00
21588;BME280;10956;48.878;13.316;2022-07-05T02:53:25;94468.47;;;18.21;100.00
21588;BME280;10956;48.878;13.316;2022-07-05T02:55:51;94460.63;;;18.16;100.00
21588;BME280;10956;48.878;13.316;2022-07-05T02:58:16;94467.53;;;18.17;100.00
21588;BME280;10956;48.878;13.316;2022-07-05T03:00:46;94472.25;;;18.20;100.00
21588;BME280;10956;48.878;13.316;2022-07-05T03:03:13;94478.00;;;18.14;100.00
21588;BME280;10956;48.878;13.316;2022-07-05T03:05:38;94469.97;;;18.05;100.00
21588;BME280;10956;48.878;13.316;2022-07-05T03:08:04;94481.59;;;18.09;100.00
21588;BME280;10956;48.878;13.316;2022-07-05T03:10:30;94478.44;;;18.07;100.00
21588;BME280;10956;48.878;13.316;2022-07-05T03:12:55;94481.13;;;18.07;100.00
21588;BME280;10956;48.878;13.316;2022-07-05T03:15:20;94478.28;;;18.03;100.00
21588;BME280;10956;48.878;13.316;2022-07-05T03:17:46;94480.63;;;18.05;100.00
21588;BME280;10956;48.878;13.316;2022-07-05T03:20:11;94480.28;;;17.98;100.00
21588;BME280;10956;48.878;13.316;2022-07-05T03:22:37;94480.47;;;18.01;100.00
21588;BME280;10956;48.878;13.316;2022-07-05T03:25:02;94481.25;;;18.02;100.00
21588;BME280;10956;48.878;13.316;2022-07-05T03:27:28;94488.75;;;18.00;100.00
21588;BME280;10956;48.878;13.316;2022-07-05T03:29:53;94490.63;;;17.99;100.00
21588;BME280;10956;48.878;13.316;2022-07-05T03:32:19;94489.38;;;17.97;100.00
21588;BME280;10956;48.878;13.316;2022-07-05T03:34:44;94487.00;;;17.95;100.00
21588;BME280;10956;48.878;13.316;2022-07-05T03:37:10;94486.88;;;18.00;100.00
21588;BME280;10956;48.878;13.316;2022-07-05T03:39:35;94487.78;;;17.96;100.00
21588;BME280;10956;48.878;13.316;2022-07-05T03:42:01;94483.25;;;17.96;100.00
21588;BME280;10956;48.878;13.316;2022-07-05T03:44:26;94486.69;;;17.97;100.00
21588;BME280;10956;48.878;13.316;2022-07-05T03:46:52;94494.69;;;17.97;100.00
21588;BME280;10956;48.878;13.316;2022-07-05T03:49:17;94499.84;;;17.93;100.00
21588;BME280;10956;48.878;13.316;2022-07-05T03:51:43;94503.31;;;17.94;100.00
21588;BME280;10956;48.878;13.316;2022-07-05T03:54:08;94500.81;;;17.97;100.00
21588;BME280;10956;48.878;13.316;2022-07-05T03:56:33;94491.13;;;18.01;100.00
21588;BME280;10956;48.878;13.316;2022-07-05T03:58:59;94497.13;;;18.07;100.00
21588;BME280;10956;48.878;13.316;2022-07-05T04:01:24;94496.19;;;18.12;100.00
21588;BME280;10956;48.878;13.316;2022-07-05T04:03:50;94503.91;;;18.13;100.00
21588;BME280;10956;48.878;13.316;2022-07-05T04:06:16;94503.53;;;18.06;100.00
21588;BME280;10956;48.878;13.316;2022-07-05T04:08:41;94502.09;;;18.00;100.00
21588;BME280;10956;48.878;13.316;2022-07-05T04:11:06;94503.66;;;18.01;100.00
21588;BME280;10956;48.878;13.316;2022-07-05T04:13:34;94497.25;;;18.02;100.00
21588;BME280;10956;48.878;13.316;2022-07-05T04:15:59;94493.06;;;18.10;100.00
21588;BME280;10956;48.878;13.316;2022-07-05T04:18:25;94494.81;;;18.14;100.00
21588;BME280;10956;48.878;13.316;2022-07-05T04:20:50;94501.75;;;18.24;100.00
21588;BME280;10956;48.878;13.316;2022-07-05T04:23:16;94493.59;;;18.20;100.00
21588;BME280;10956;48.878;13.316;2022-07-05T04:25:41;94487.28;;;18.16;100.00
21588;BME280;10956;48.878;13.316;2022-07-05T04:28:06;94487.63;;;18.23;100.00
21588;BME280;10956;48.878;13.316;2022-07-05T04:30:32;94484.97;;;18.23;100.00
21588;BME280;10956;48.878;13.316;2022-07-05T04:32:57;94486.31;;;18.12;100.00
21588;BME280;10956;48.878;13.316;2022-07-05T04:35:23;94493.84;;;18.10;100.00
21588;BME280;10956;48.878;13.316;2022-07-05T04:37:49;94487.53;;;18.06;100.00
21588;BME280;10956;48.878;13.316;2022-07-05T04:40:14;94494.16;;;18.08;100.00
21588;BME280;10956;48.878;13.316;2022-07-05T04:42:40;94496.38;;;18.15;100.00
21588;BME280;10956;48.878;13.316;2022-07-05T04:45:07;94498.56;;;18.13;100.00
21588;BME280;10956;48.878;13.316;2022-07-05T04:47:32;94499.88;;;18.24;100.00
21588;BME280;10956;48.878;13.316;2022-07-05T04:49:59;94500.22;;;18.31;100.00
21588;BME280;10956;48.878;13.316;2022-07-05T04:52:25;94496.81;;;18.39;100.00
21588;BME280;10956;48.878;13.316;2022-07-05T04:54:51;94499.34;;;18.45;100.00
21588;BME280;10956;48.878;13.316;2022-07-05T04:57:17;94493.56;;;18.51;100.00
21588;BME280;10956;48.878;13.316;2022-07-05T04:59:42;94498.47;;;18.58;100.00
21588;BME280;10956;48.878;13.316;2022-07-05T05:02:08;94502.00;;;18.67;100.00
21588;BME280;10956;48.878;13.316;2022-07-05T05:04:33;94502.78;;;18.67;100.00
21588;BME280;10956;48.878;13.316;2022-07-05T05:06:59;94495.84;;;18.66;100.00
21588;BME280;10956;48.878;13.316;2022-07-05T05:09:24;94502.94;;;18.71;100.00
21588;BME280;10956;48.878;13.316;2022-07-05T05:11:50;94502.63;;;18.73;100.00
21588;BME280;10956;48.878;13.316;2022-07-05T05:14:15;94494.78;;;18.76;100.00
21588;BME280;10956;48.878;13.316;2022-07-05T05:16:41;94505.47;;;18.76;100.00
21588;BME280;10956;48.878;13.316;2022-07-05T05:19:06;94504.69;;;18.76;100.00
21588;BME280;10956;48.878;13.316;2022-07-05T05:21:32;94504.25;;;18.82;100.00
21588;BME280;10956;48.878;13.316;2022-07-05T05:23:57;94495.78;;;18.89;100.00
21588;BME280;10956;48.878;13.316;2022-07-05T05:26:23;94500.19;;;18.93;100.00
21588;BME280;10956;48.878;13.316;2022-07-05T05:28:48;94499.09;;;18.94;100.00
21588;BME280;10956;48.878;13.316;2022-07-05T05:31:14;94503.03;;;18.97;100.00
21588;BME280;10956;48.878;13.316;2022-07-05T05:33:39;94510.59;;;19.03;100.00
21588;BME280;10956;48.878;13.316;2022-07-05T05:36:05;94507.59;;;19.05;100.00
21588;BME280;10956;48.878;13.316;2022-07-05T05:38:31;94515.91;;;19.03;100.00
21588;BME280;10956;48.878;13.316;2022-07-05T05:40:57;94514.34;;;19.02;100.00
21588;BME280;10956;48.878;13.316;2022-07-05T05:43:22;94514.69;;;19.10;100.00
21588;BME280;10956;48.878;13.316;2022-07-05T05:45:47;94510.28;;;19.14;100.00
21588;BME280;10956;48.878;13.316;2022-07-05T05:48:13;94521.44;;;19.16;100.00
21588;BME280;10956;48.878;13.316;2022-07-05T05:50:38;94524.13;;;19.16;100.00
21588;BME280;10956;48.878;13.316;2022-07-05T05:53:05;94521.44;;;19.16;100.00
21588;BME280;10956;48.878;13.316;2022-07-05T05:55:31;94516.91;;;19.16;100.00
21588;BME280;10956;48.878;13.316;2022-07-05T05:58:10;94522.22;;;19.08;100.00
21588;BME280;10956;48.878;13.316;2022-07-05T06:00:36;94523.03;;;19.17;100.00
21588;BME280;10956;48.878;13.316;2022-07-05T06:03:01;94522.41;;;19.20;100.00
21588;BME280;10956;48.878;13.316;2022-07-05T06:05:27;94525.41;;;19.27;100.00
21588;BME280;10956;48.878;13.316;2022-07-05T06:07:54;94528.25;;;19.39;100.00
21588;BME280;10956;48.878;13.316;2022-07-05T06:10:28;94530.31;;;19.51;100.00
21588;BME280;10956;48.878;13.316;2022-07-05T06:12:57;94525.31;;;19.58;100.00
21588;BME280;10956;48.878;13.316;2022-07-05T06:15:23;94528.31;;;19.65;100.00
21588;BME280;10956;48.878;13.316;2022-07-05T06:17:49;94528.78;;;19.67;100.00
21588;BME280;10956;48.878;13.316;2022-07-05T06:20:21;94528.78;;;19.76;100.00
21588;BME280;10956;48.878;13.316;2022-07-05T06:22:47;94528.63;;;19.81;100.00
21588;BME280;10956;48.878;13.316;2022-07-05T06:25:13;94532.88;;;19.90;100.00
21588;BME280;10956;48.878;13.316;2022-07-05T06:27:51;94528.31;;;19.91;100.00
21588;BME280;10956;48.878;13.316;2022-07-05T06:30:18;94530.03;;;19.87;100.00
21588;BME280;10956;48.878;13.316;2022-07-05T06:32:45;94528.16;;;19.87;100.00
21588;BME280;10956;48.878;13.316;2022-07-05T06:35:11;94529.56;;;20.02;100.00
21588;BME280;10956;48.878;13.316;2022-07-05T06:37:48;94530.63;;;20.10;100.00
21588;BME280;10956;48.878;13.316;2022-07-05T06:40:20;94528.88;;;20.22;100.00
21588;BME280;10956;48.878;13.316;2022-07-05T06:42:46;94536.44;;;20.20;100.00
21588;BME280;10956;48.878;13.316;2022-07-05T06:45:11;94526.19;;;20.31;100.00
21588;BME280;10956;48.878;13.316;2022-07-05T06:47:37;94525.91;;;20.79;100.00
21588;BME280;10956;48.878;13.316;2022-07-05T06:50:04;94525.69;;;21.31;100.00
21588;BME280;10956;48.878;13.316;2022-07-05T06:52:30;94517.88;;;21.68;100.00
21588;BME280;10956;48.878;13.316;2022-07-05T06:54:57;94523.34;;;21.92;100.00
21588;BME280;10956;48.878;13.316;2022-07-05T06:57:22;94526.03;;;22.13;99.51
21588;BME280;10956;48.878;13.316;2022-07-05T06:59:48;94518.16;;;22.29;98.06
21588;BME280;10956;48.878;13.316;2022-07-05T07:02:14;94519.78;;;22.66;96.50
21588;BME280;10956;48.878;13.316;2022-07-05T07:04:40;94516.72;;;23.13;94.19
21588;BME280;10956;48.878;13.316;2022-07-05T07:07:05;94521.06;;;23.42;92.51
21588;BME280;10956;48.878;13.316;2022-07-05T07:10:00;94521.41;;;23.40;90.92
21588;BME280;10956;48.878;13.316;2022-07-05T07:12:26;94526.56;;;23.21;91.84
21588;BME280;10956;48.878;13.316;2022-07-05T07:14:53;94522.44;;;23.24;90.97
21588;BME280;10956;48.878;13.316;2022-07-05T07:17:18;94517.69;;;23.45;89.99
21588;BME280;10956;48.878;13.316;2022-07-05T07:19:43;94520.22;;;23.78;88.33
21588;BME280;10956;48.878;13.316;2022-07-05T07:22:09;94527.09;;;24.03;86.49
21588;BME280;10956;48.878;13.316;2022-07-05T07:24:34;94532.72;;;23.98;85.81
21588;BME280;10956;48.878;13.316;2022-07-05T07:27:00;94529.56;;;23.68;86.13
21588;BME280;10956;48.878;13.316;2022-07-05T07:29:29;94528.47;;;23.33;87.65
21588;BME280;10956;48.878;13.316;2022-07-05T07:31:55;94540.69;;;23.06;88.06
21588;BME280;10956;48.878;13.316;2022-07-05T07:34:21;94546.63;;;23.11;88.63
21588;BME280;10956;48.878;13.316;2022-07-05T07:36:47;94541.59;;;23.10;86.14
21588;BME280;10956;48.878;13.316;2022-07-05T07:39:12;94544.91;;;22.82;87.03
21588;BME280;10956;48.878;13.316;2022-07-05T07:41:38;94542.91;;;22.79;87.64
21588;BME280;10956;48.878;13.316;2022-07-05T07:44:03;94544.81;;;22.91;87.33
21588;BME280;10956;48.878;13.316;2022-07-05T07:46:29;94538.66;;;23.03;86.60
21588;BME280;10956;48.878;13.316;2022-07-05T07:48:54;94532.63;;;23.30;86.56
21588;BME280;10956;48.878;13.316;2022-07-05T07:51:20;94536.38;;;23.78;85.50
21588;BME280;10956;48.878;13.316;2022-07-05T07:53:47;94530.94;;;24.30;82.99
21588;BME280;10956;48.878;13.316;2022-07-05T07:56:12;94538.38;;;24.49;81.57
21588;BME280;10956;48.878;13.316;2022-07-05T07:58:38;94531.28;;;24.72;81.62
21588;BME280;10956;48.878;13.316;2022-07-05T08:01:03;94533.97;;;24.88;81.42
21588;BME280;10956;48.878;13.316;2022-07-05T08:03:31;94537.88;;;24.91;81.79
21588;BME280;10956;48.878;13.316;2022-07-05T08:05:57;94529.53;;;24.96;81.88
21588;BME280;10956;48.878;13.316;2022-07-05T08:08:22;94533.56;;;25.02;81.95
21588;BME280;10956;48.878;13.316;2022-07-05T08:10:48;94539.41;;;25.04;81.13
21588;BME280;10956;48.878;13.316;2022-07-05T08:13:13;94530.84;;;24.86;82.24
21588;BME280;10956;48.878;13.316;2022-07-05T08:15:39;94533.00;;;24.65;83.21
21588;BME280;10956;48.878;13.316;2022-07-05T08:18:04;94542.28;;;24.24;85.09
21588;BME280;10956;48.878;13.316;2022-07-05T08:20:48;94539.72;;;23.87;86.60
21588;BME280;10956;48.878;13.316;2022-07-05T08:23:32;94523.06;;;23.69;87.11
21588;BME280;10956;48.878;13.316;2022-07-05T08:25:57;94527.00;;;23.47;88.70
21588;BME280;10956;48.878;13.316;2022-07-05T08:28:23;94522.06;;;23.49;89.19
21588;BME280;10956;48.878;13.316;2022-07-05T08:30:49;94518.25;;;23.50;89.11
21588;BME280;10956;48.878;13.316;2022-07-05T08:33:14;94523.19;;;23.61;88.65
21588;BME280;10956;48.878;13.316;2022-07-05T08:35:40;94521.38;;;23.65;89.05
21588;BME280;10956;48.878;13.316;2022-07-05T08:38:05;94523.47;;;23.83;89.63
21588;BME280;10956;48.878;13.316;2022-07-05T08:40:32;94525.34;;;23.95;89.41
21588;BME280;10956;48.878;13.316;2022-07-05T08:43:04;94520.16;;;24.02;88.15
21588;BME280;10956;48.878;13.316;2022-07-05T08:45:31;94524.22;;;23.96;88.57
21588;BME280;10956;48.878;13.316;2022-07-05T08:47:58;94529.16;;;23.94;88.34
21588;BME280;10956;48.878;13.316;2022-07-05T08:50:27;94528.72;;;23.92;89.04
21588;BME280;10956;48.878;13.316;2022-07-05T08:52:53;94519.94;;;23.95;90.29
21588;BME280;10956;48.878;13.316;2022-07-05T08:55:18;94526.91;;;23.96;90.02
21588;BME280;10956;48.878;13.316;2022-07-05T08:57:44;94525.63;;;24.06;89.19
21588;BME280;10956;48.878;13.316;2022-07-05T09:00:10;94521.66;;;24.28;87.85
21588;BME280;10956;48.878;13.316;2022-07-05T09:02:36;94516.03;;;24.48;87.96
21588;BME280;10956;48.878;13.316;2022-07-05T09:05:02;94524.66;;;24.54;87.86
21588;BME280;10956;48.878;13.316;2022-07-05T09:07:29;94529.00;;;24.74;86.50
21588;BME280;10956;48.878;13.316;2022-07-05T09:09:59;94522.31;;;24.84;85.54
21588;BME280;10956;48.878;13.316;2022-07-05T09:12:25;94517.72;;;24.85;85.69
21588;BME280;10956;48.878;13.316;2022-07-05T09:14:51;94517.97;;;24.79;86.25
21588;BME280;10956;48.878;13.316;2022-07-05T09:17:17;94520.59;;;24.92;85.72
21588;BME280;10956;48.878;13.316;2022-07-05T09:19:42;94515.38;;;25.15;85.74
21588;BME280;10956;48.878;13.316;2022-07-05T09:22:08;94517.47;;;25.21;85.50
21588;BME280;10956;48.878;13.316;2022-07-05T09:24:43;94513.84;;;25.49;84.61
21588;BME280;10956;48.878;13.316;2022-07-05T09:27:09;94518.25;;;25.57;83.87
21588;BME280;10956;48.878;13.316;2022-07-05T09:29:35;94514.72;;;25.53;83.14
21588;BME280;10956;48.878;13.316;2022-07-05T09:32:00;94516.53;;;25.49;82.23
21588;BME280;10956;48.878;13.316;2022-07-05T09:34:28;94522.75;;;25.33;82.46
21588;BME280;10956;48.878;13.316;2022-07-05T09:36:59;94527.66;;;25.12;82.83
21588;BME280;10956;48.878;13.316;2022-07-05T09:42:19;94516.06;;;24.80;84.16
21588;BME280;10956;48.878;13.316;2022-07-05T09:45:03;94513.47;;;24.84;84.97
21588;BME280;10956;48.878;13.316;2022-07-05T09:47:29;94519.97;;;24.83;84.58
21588;BME280;10956;48.878;13.316;2022-07-05T09:49:56;94512.75;;;24.87;84.52
21588;BME280;10956;48.878;13.316;2022-07-05T09:57:35;94514.59;;;25.14;83.73
21588;BME280;10956;48.878;13.316;2022-07-05T10:00:04;94510.06;;;25.18;83.18
21588;BME280;10956;48.878;13.316;2022-07-05T10:02:35;94510.94;;;25.22;84.19
21588;BME280;10956;48.878;13.316;2022-07-05T10:07:42;94520.31;;;25.28;83.34
21588;BME280;10956;48.878;13.316;2022-07-05T10:10:11;94508.75;;;25.28;83.20
21588;BME280;10956;48.878;13.316;2022-07-05T10:12:37;94506.28;;;25.38;83.69
21588;BME280;10956;48.878;13.316;2022-07-05T10:15:03;94518.25;;;25.57;82.69
21588;BME280;10956;48.878;13.316;2022-07-05T10:17:36;94503.34;;;25.63;81.82
21588;BME280;10956;48.878;13.316;2022-07-05T10:20:03;94510.78;;;25.50;80.64
21588;BME280;10956;48.878;13.316;2022-07-05T10:22:30;94503.78;;;25.30;81.89
21588;BME280;10956;48.878;13.316;2022-07-05T10:24:55;94505.44;;;25.34;81.61
21588;BME280;10956;48.878;13.316;2022-07-05T10:27:26;94509.78;;;25.39;80.26
21588;BME280;10956;48.878;13.316;2022-07-05T10:29:53;94498.13;;;25.35;80.45
21588;BME280;10956;48.878;13.316;2022-07-05T10:32:22;94492.66;;;25.31;79.99
21588;BME280;10956;48.878;13.316;2022-07-05T10:34:49;94493.94;;;25.37;80.01
21588;BME280;10956;48.878;13.316;2022-07-05T10:37:16;94501.72;;;25.58;79.13
21588;BME280;10956;48.878;13.316;2022-07-05T10:39:42;94498.44;;;25.84;78.07
21588;BME280;10956;48.878;13.316;2022-07-05T10:42:07;94491.47;;;26.02;77.42
21588;BME280;10956;48.878;13.316;2022-07-05T10:44:34;94484.50;;;26.21;76.68
21588;BME280;10956;48.878;13.316;2022-07-05T10:47:17;94481.66;;;26.33;76.92
21588;BME280;10956;48.878;13.316;2022-07-05T10:49:59;94469.41;;;26.39;77.12
21588;BME280;10956;48.878;13.316;2022-07-05T10:52:25;94478.91;;;26.52;75.86
21588;BME280;10956;48.878;13.316;2022-07-05T10:55:19;94479.03;;;26.59;74.65
21588;BME280;10956;48.878;13.316;2022-07-05T11:00:39;94497.66;;;26.22;73.79
21588;BME280;10956;48.878;13.316;2022-07-05T11:03:36;94502.06;;;25.92;73.83
21588;BME280;10956;48.878;13.316;2022-07-05T11:06:03;94497.44;;;25.73;75.89
21588;BME280;10956;48.878;13.316;2022-07-05T11:08:30;94490.22;;;25.61;77.82
21588;BME280;10956;48.878;13.316;2022-07-05T11:11:11;94502.78;;;25.54;76.69
21588;BME280;10956;48.878;13.316;2022-07-05T11:13:38;94496.72;;;25.41;76.76
21588;BME280;10956;48.878;13.316;2022-07-05T11:19:16;94508.50;;;25.17;77.36
21588;BME280;10956;48.878;13.316;2022-07-05T11:22:05;94521.38;;;25.08;75.34
21588;BME280;10956;48.878;13.316;2022-07-05T11:24:36;94543.28;;;24.91;75.94
21588;BME280;10956;48.878;13.316;2022-07-05T11:27:08;94548.31;;;24.33;69.58
21588;BME280;10956;48.878;13.316;2022-07-05T11:29:44;94552.31;;;23.71;69.48
21588;BME280;10956;48.878;13.316;2022-07-05T11:34:40;94551.44;;;23.42;72.71
21588;BME280;10956;48.878;13.316;2022-07-05T11:37:25;94547.41;;;23.36;73.60
21588;BME280;10956;48.878;13.316;2022-07-05T11:42:51;94534.28;;;23.35;76.85
21588;BME280;10956;48.878;13.316;2022-07-05T11:45:17;94525.88;;;23.36;77.38
21588;BME280;10956;48.878;13.316;2022-07-05T11:47:43;94517.38;;;23.34;77.74
21588;BME280;10956;48.878;13.316;2022-07-05T11:50:10;94514.91;;;23.41;78.07
21588;BME280;10956;48.878;13.316;2022-07-05T11:52:37;94523.88;;;23.58;77.90
21588;BME280;10956;48.878;13.316;2022-07-05T11:55:05;94531.69;;;23.75;78.65
21588;BME280;10956;48.878;13.316;2022-07-05T11:57:31;94529.53;;;23.80;80.08
21588;BME280;10956;48.878;13.316;2022-07-05T11:59:56;94527.66;;;23.44;82.71
21588;BME280;10956;48.878;13.316;2022-07-05T12:02:21;94526.34;;;23.26;85.07
21588;BME280;10956;48.878;13.316;2022-07-05T12:04:52;94518.03;;;23.31;85.51
21588;BME280;10956;48.878;13.316;2022-07-05T12:07:33;94526.78;;;23.40;84.54
21588;BME280;10956;48.878;13.316;2022-07-05T12:10:01;94544.94;;;23.43;84.35
21588;BME280;10956;48.878;13.316;2022-07-05T12:12:45;94555.13;;;23.38;84.78
21588;BME280;10956;48.878;13.316;2022-07-05T12:15:16;94563.09;;;23.22;83.97
21588;BME280;10956;48.878;13.316;2022-07-05T12:17:44;94556.38;;;23.04;84.25
21588;BME280;10956;48.878;13.316;2022-07-05T12:20:12;94560.63;;;23.17;83.21
21588;BME280;10956;48.878;13.316;2022-07-05T12:22:40;94546.06;;;23.18;83.32
21588;BME280;10956;48.878;13.316;2022-07-05T12:25:08;94536.53;;;23.33;82.59
21588;BME280;10956;48.878;13.316;2022-07-05T12:27:36;94534.50;;;23.66;81.37
21588;BME280;10956;48.878;13.316;2022-07-05T12:30:04;94524.72;;;23.74;78.34
21588;BME280;10956;48.878;13.316;2022-07-05T12:32:29;94532.09;;;23.89;79.80
21588;BME280;10956;48.878;13.316;2022-07-05T12:34:56;94530.22;;;24.05;78.57
21588;BME280;10956;48.878;13.316;2022-07-05T12:37:26;94522.41;;;24.00;77.17
21588;BME280;10956;48.878;13.316;2022-07-05T12:40:07;94531.47;;;23.68;78.14
21588;BME280;10956;48.878;13.316;2022-07-05T12:42:38;94532.03;;;23.49;75.50
21588;BME280;10956;48.878;13.316;2022-07-05T12:45:08;94529.22;;;23.45;76.89
21588;BME280;10956;48.878;13.316;2022-07-05T12:47:47;94525.00;;;23.32;78.76
21588;BME280;10956;48.878;13.316;2022-07-05T12:50:12;94521.84;;;23.30;79.20
21588;BME280;10956;48.878;13.316;2022-07-05T12:53:04;94524.78;;;23.25;79.88
21588;BME280;10956;48.878;13.316;2022-07-05T12:55:57;94525.78;;;23.33;81.84
21588;BME280;10956;48.878;13.316;2022-07-05T13:04:02;94514.66;;;23.71;75.47
21588;BME280;10956;48.878;13.316;2022-07-05T13:06:41;94508.16;;;24.00;74.26
21588;BME280;10956;48.878;13.316;2022-07-05T13:09:08;94523.09;;;24.25;74.66
21588;BME280;10956;48.878;13.316;2022-07-05T13:11:34;94522.47;;;24.44;75.06
21588;BME280;10956;48.878;13.316;2022-07-05T13:13:59;94517.69;;;24.53;74.87